Southfield, Michigan
Current Conditions -  °F | °C
As of 10:35 AM on Monday 22 Dec 2014 (Local Time) from KVLL Reporting Station
Clear Clear  
Wind Chill: 29°   Ceiling: Unl
Heat Index: 35°   Visibility: 10mi
Dew Point: 28°   Wind: 8mph
Humidity: 75%   Direction: 100°E
Pressure: 30.1"   Gusts: NA
Location:  42.48°N, 83.24°W
Report Text: KVLL 221535Z AUTO 10007KT 10SM CLR 02/M02 A3010 RMK AO2 T00191021
Loading
Personal Weather Stations






























Interactive Weather Map New forecast layout! Learn more

10-Day Weather Forecast

Advertisements
Track Severe Weather on mobile